Eagle, Wisconsin
Current Conditions -  °F | °C
As of 7:45 AM on Saturday 25 Oct 2014 (Local Time) from KUES Reporting Station
Haze Haze  
Wind Chill: 52°   Ceiling: Unl
Heat Index: 52°   Visibility: 4mi
Dew Point: 50°   Wind: 9mph
Humidity: 94%   Direction: 280°W
Pressure: 29.91"   Gusts: NA
Location:  42.88°N, 88.47°W
Report Text: KUES 251245Z 28008KT 4SM BR SKC 11/10 A2991
Loading
Personal Weather Stations






























Interactive Weather Map
Tropical Storm Tracking
New forecast layout! Learn more

10-Day Weather Forecast

Advertisements
Track Severe Weather on mobile